Time;durP1;ratioP1;P1;durP2;ratioP2;P2;SDS_P1;SDS_P2;PMS_P1;PMS_P2;Temp;Humidity;BMP_temperature;BMP_pressure;BME280_temperature;BME280_humidity;BME280_pressure;Samples;Min_cycle;Max_cycle;Signal;HPM_P1;HPM_P2
2023/03/08 00:01:39;;;;;;;1.80;1.10;;;7.30;23.90;;;;;;5049165;28;20258;-67
2023/03/08 00:04:05;;;;;;;2.57;1.87;;;7.10;24.10;;;;;;5076485;28;20552;-70
2023/03/08 00:06:30;;;;;;;2.40;1.30;;;7.40;24.10;;;;;;5071164;28;20199;-67
2023/03/08 00:08:58;;;;;;;2.30;1.20;;;7.80;23.30;;;;;;5070680;28;20727;-67
2023/03/08 00:11:24;;;;;;;1.80;1.10;;;7.70;23.10;;;;;;5070608;28;20245;-70
2023/03/08 00:13:50;;;;;;;2.10;1.30;;;7.60;23.70;;;;;;5072884;28;20676;-67
2023/03/08 00:16:16;;;;;;;1.80;1.10;;;7.20;24.10;;;;;;5072133;28;20287;-67
2023/03/08 00:18:41;;;;;;;2.03;1.30;;;7.30;24.30;;;;;;5072313;28;20262;-69
2023/03/08 00:21:09;;;;;;;1.90;1.20;;;7.50;24.00;;;;;;5069325;28;20215;-70
2023/03/08 00:23:35;;;;;;;1.80;1.10;;;6.90;24.70;;;;;;5071882;28;20660;-69
2023/03/08 00:26:02;;;;;;;2.00;1.40;;;6.70;25.00;;;;;;5075216;28;20237;-67
2023/03/08 00:28:28;;;;;;;1.90;1.10;;;6.70;25.20;;;;;;5052498;28;20186;-69
2023/03/08 00:30:57;;;;;;;3.17;1.30;;;6.60;25.30;;;;;;5053762;28;20194;-70
2023/03/08 00:33:23;;;;;;;2.00;1.15;;;6.60;25.40;;;;;;5070244;28;21054;-70
2023/03/08 00:35:59;;;;;;;2.10;1.30;;;6.90;25.50;;;;;;5073373;28;20298;-67
2023/03/08 00:38:25;;;;;;;2.20;1.30;;;6.60;25.50;;;;;;5069390;28;20650;-67
2023/03/08 00:40:51;;;;;;;2.00;1.10;;;6.80;25.30;;;;;;5071730;28;20194;-68
2023/03/08 00:43:16;;;;;;;1.95;1.10;;;7.00;25.00;;;;;;5069091;28;20262;-67
2023/03/08 00:45:42;;;;;;;2.00;1.10;;;7.50;24.30;;;;;;5072329;28;20293;-69
2023/03/08 00:48:07;;;;;;;2.00;1.10;;;7.70;23.70;;;;;;5069968;28;20206;-68
2023/03/08 00:50:33;;;;;;;2.20;1.20;;;7.50;24.00;;;;;;5071988;28;20194;-69
2023/03/08 00:52:58;;;;;;;3.93;2.63;;;7.50;24.10;;;;;;5070001;28;20210;-67
2023/03/08 00:55:24;;;;;;;2.30;1.40;;;7.40;24.20;;;;;;5071264;28;20202;-68
2023/03/08 00:57:50;;;;;;;2.93;1.57;;;7.20;24.90;;;;;;5069953;28;20614;-68
2023/03/08 01:00:15;;;;;;;3.60;1.83;;;6.90;24.80;;;;;;5072699;28;20178;-67
2023/03/08 01:02:41;;;;;;;2.23;1.33;;;6.90;25.20;;;;;;5070615;28;20241;-67
2023/03/08 01:05:08;;;;;;;2.17;1.27;;;7.10;24.80;;;;;;5070432;28;20982;-67
2023/03/08 01:07:34;;;;;;;2.20;1.30;;;6.80;25.00;;;;;;5069041;28;20226;-67
2023/03/08 01:09:59;;;;;;;2.10;1.40;;;7.10;24.80;;;;;;5071893;28;20214;-67
2023/03/08 01:12:25;;;;;;;2.10;1.20;;;6.70;25.40;;;;;;5072322;28;20207;-67
2023/03/08 01:14:51;;;;;;;2.10;1.20;;;7.00;24.80;;;;;;5069005;28;20187;-69
2023/03/08 01:17:17;;;;;;;2.53;1.63;;;6.90;25.10;;;;;;5069377;28;20207;-67
2023/03/08 01:19:42;;;;;;;2.07;1.10;;;6.80;25.10;;;;;;5046491;28;20257;-70
2023/03/08 01:22:08;;;;;;;2.17;1.20;;;7.30;24.50;;;;;;5066645;28;20562;-67
2023/03/08 01:24:34;;;;;;;2.30;1.20;;;7.50;24.20;;;;;;5072527;28;20187;-67
2023/03/08 01:26:59;;;;;;;2.00;1.10;;;7.40;24.20;;;;;;5079333;22;20219;-66
2023/03/08 01:29:26;;;;;;;2.70;1.53;;;7.90;23.90;;;;;;5089114;28;20253;-66
2023/03/08 01:31:52;;;;;;;2.00;1.10;;;7.80;23.60;;;;;;5089534;28;20178;-66
2023/03/08 01:34:17;;;;;;;2.00;1.07;;;8.20;23.80;;;;;;5088901;28;20175;-66
2023/03/08 01:36:43;;;;;;;2.00;1.10;;;7.60;23.80;;;;;;5081271;28;20959;-68
2023/03/08 01:39:08;;;;;;;2.00;1.10;;;7.30;24.30;;;;;;5068820;28;20256;-69
2023/03/08 01:41:34;;;;;;;3.63;1.67;;;7.30;24.40;;;;;;5068396;28;20178;-65
2023/03/08 01:44:00;;;;;;;2.10;1.10;;;7.40;24.30;;;;;;5064579;28;20194;-66
2023/03/08 01:46:32;;;;;;;2.00;1.10;;;7.50;23.90;;;;;;5051722;28;20232;-66
2023/03/08 01:49:12;;;;;;;2.00;1.10;;;7.40;24.40;;;;;;5062995;28;20529;-67
2023/03/08 01:51:57;;;;;;;2.00;1.10;;;7.60;24.10;;;;;;5069506;28;20190;-66
2023/03/08 01:54:29;;;;;;;2.25;1.20;;;7.40;24.00;;;;;;5070755;28;20186;-67
2023/03/08 01:57:01;;;;;;;2.35;1.50;;;7.60;23.50;;;;;;5069860;28;20662;-66
2023/03/08 01:59:29;;;;;;;2.10;1.10;;;7.80;23.50;;;;;;5066217;28;20198;-67
2023/03/08 02:01:54;;;;;;;2.55;1.20;;;8.20;22.80;;;;;;5062695;28;20180;-66
2023/03/08 02:04:20;;;;;;;2.30;1.40;;;8.00;23.00;;;;;;5069354;28;20240;-66
2023/03/08 02:06:46;;;;;;;2.00;1.10;;;7.90;23.30;;;;;;5070454;28;20238;-69
2023/03/08 02:09:12;;;;;;;2.53;1.33;;;8.00;23.10;;;;;;5064848;28;20194;-70
2023/03/08 02:11:40;;;;;;;2.53;1.55;;;8.10;23.00;;;;;;5069791;28;20179;-66
2023/03/08 02:14:06;;;;;;;2.38;1.48;;;8.10;22.90;;;;;;5076806;28;20261;-69
2023/03/08 02:16:32;;;;;;;2.47;1.40;;;7.80;23.10;;;;;;5075286;28;20207;-67
2023/03/08 02:19:00;;;;;;;2.10;1.30;;;7.80;23.40;;;;;;5076616;28;20239;-67
2023/03/08 02:21:28;;;;;;;2.50;1.30;;;8.20;23.10;;;;;;5073955;28;20179;-70
2023/03/08 02:23:55;;;;;;;1.90;1.10;;;8.20;22.60;;;;;;5074655;28;20275;-66
2023/03/08 02:26:21;;;;;;;2.17;1.30;;;8.10;22.80;;;;;;5076369;28;20214;-68
2023/03/08 02:28:47;;;;;;;1.77;1.00;;;7.70;23.70;;;;;;5075760;28;20187;-68
2023/03/08 02:31:13;;;;;;;1.83;1.10;;;7.60;24.00;;;;;;5073688;28;20261;-68
2023/03/08 02:33:39;;;;;;;2.42;1.20;;;7.90;23.40;;;;;;5067802;28;20884;-66
2023/03/08 02:36:07;;;;;;;1.80;1.00;;;7.70;23.90;;;;;;5074198;28;20221;-67
2023/03/08 02:38:32;;;;;;;1.80;1.10;;;7.60;24.60;;;;;;5074023;28;20441;-67
2023/03/08 02:40:58;;;;;;;1.90;1.20;;;8.00;23.80;;;;;;5069095;28;20533;-67
2023/03/08 02:43:24;;;;;;;1.90;1.20;;;8.40;23.10;;;;;;5064011;28;20542;-66
2023/03/08 02:45:50;;;;;;;2.10;1.20;;;8.70;22.70;;;;;;5072372;28;20700;-67
2023/03/08 02:48:16;;;;;;;2.17;1.23;;;7.80;23.90;;;;;;5069970;28;20681;-66
2023/03/08 02:50:42;;;;;;;1.80;1.10;;;7.60;24.50;;;;;;5072207;28;20769;-66
2023/03/08 02:53:07;;;;;;;1.93;1.50;;;7.60;24.30;;;;;;5071039;28;20259;-66
2023/03/08 02:55:36;;;;;;;1.80;1.10;;;7.50;24.50;;;;;;5072494;28;20266;-67
2023/03/08 02:58:06;;;;;;;3.50;2.03;;;8.00;24.30;;;;;;5065526;28;20212;-66
2023/03/08 03:00:33;;;;;;;1.80;1.10;;;8.40;23.50;;;;;;5053258;28;20191;-67
2023/03/08 03:02:59;;;;;;;3.35;1.73;;;8.60;23.50;;;;;;5070924;28;20179;-66
2023/03/08 03:05:24;;;;;;;1.90;1.20;;;8.60;23.50;;;;;;5053422;28;20222;-67
2023/03/08 03:07:50;;;;;;;1.80;1.10;;;8.80;23.50;;;;;;5071752;28;20622;-66
2023/03/08 03:10:16;;;;;;;2.08;1.30;;;9.00;23.80;;;;;;5072600;28;20273;-68
2023/03/08 03:12:42;;;;;;;1.90;1.20;;;8.80;23.80;;;;;;5071054;28;20318;-67
2023/03/08 03:15:10;;;;;;;1.90;1.10;;;8.80;24.30;;;;;;5073058;28;20508;-70
2023/03/08 03:17:36;;;;;;;1.90;1.10;;;8.90;23.70;;;;;;5071984;28;20745;-66
2023/03/08 03:20:05;;;;;;;1.80;1.00;;;8.80;23.10;;;;;;5072123;28;20680;-67
2023/03/08 03:22:31;;;;;;;2.03;1.30;;;8.30;23.20;;;;;;5070514;28;20198;-67
2023/03/08 03:24:57;;;;;;;1.90;1.10;;;8.50;23.30;;;;;;5072108;28;20203;-66
2023/03/08 03:27:23;;;;;;;1.83;1.07;;;8.80;22.80;;;;;;5071227;28;20551;-67
2023/03/08 03:29:48;;;;;;;1.80;1.03;;;8.60;23.40;;;;;;5072550;28;20179;-67
2023/03/08 03:32:14;;;;;;;1.80;1.10;;;8.80;23.40;;;;;;5070997;28;20554;-68
2023/03/08 03:34:39;;;;;;;1.80;1.10;;;8.60;22.50;;;;;;5068107;28;20183;-67
2023/03/08 03:37:05;;;;;;;1.80;1.00;;;8.50;23.40;;;;;;5070065;28;20207;-67
2023/03/08 03:39:34;;;;;;;2.40;1.50;;;8.90;22.20;;;;;;5070962;28;20210;-67
2023/03/08 03:42:00;;;;;;;1.80;1.10;;;9.00;22.70;;;;;;5071592;28;20171;-67
2023/03/08 03:44:29;;;;;;;2.47;1.60;;;9.00;23.50;;;;;;5072318;28;20189;-67
2023/03/08 03:46:54;;;;;;;1.80;1.10;;;9.00;22.80;;;;;;5066445;28;20445;-67
2023/03/08 03:49:20;;;;;;;1.80;1.07;;;8.80;22.10;;;;;;5070694;28;20180;-70
2023/03/08 03:51:46;;;;;;;1.80;1.20;;;8.80;22.90;;;;;;5071778;28;20183;-67
2023/03/08 03:54:11;;;;;;;1.70;1.10;;;8.90;23.10;;;;;;5071173;28;20237;-67
2023/03/08 03:56:37;;;;;;;1.80;1.10;;;9.00;23.50;;;;;;5064043;28;20211;-67
2023/03/08 03:59:02;;;;;;;1.83;1.10;;;9.00;23.30;;;;;;5061835;28;20266;-70
2023/03/08 04:01:30;;;;;;;1.80;1.10;;;9.20;22.70;;;;;;5062001;28;20245;-68
2023/03/08 04:03:56;;;;;;;1.80;1.10;;;9.50;22.50;;;;;;5071051;28;20187;-67
2023/03/08 04:06:23;;;;;;;1.83;1.08;;;9.40;22.40;;;;;;5070713;28;20257;-67
2023/03/08 04:08:52;;;;;;;1.80;1.00;;;9.50;22.90;;;;;;5072145;28;20700;-69
2023/03/08 04:11:20;;;;;;;2.30;1.30;;;9.10;23.00;;;;;;5070299;28;20654;-67
2023/03/08 04:13:46;;;;;;;1.90;1.10;;;8.70;23.50;;;;;;5071325;28;20233;-67
2023/03/08 04:16:14;;;;;;;2.00;1.20;;;8.70;23.10;;;;;;5071976;28;20585;-67
2023/03/08 04:18:40;;;;;;;2.00;1.20;;;8.60;22.80;;;;;;5072020;28;20214;-67
2023/03/08 04:21:06;;;;;;;2.60;1.43;;;8.80;22.70;;;;;;5072045;28;20211;-67
2023/03/08 04:23:32;;;;;;;2.05;1.30;;;8.30;23.20;;;;;;5051487;28;20441;-67
2023/03/08 04:25:59;;;;;;;2.00;1.15;;;8.20;23.60;;;;;;5071527;28;20680;-67
2023/03/08 04:28:24;;;;;;;2.00;1.27;;;8.10;23.80;;;;;;5071666;28;20642;-67
2023/03/08 04:30:50;;;;;;;2.00;1.23;;;8.10;24.50;;;;;;5062302;28;20187;-67
2023/03/08 04:33:16;;;;;;;1.93;1.10;;;8.30;24.30;;;;;;5068894;28;20194;-69
2023/03/08 04:35:41;;;;;;;2.00;1.30;;;8.20;23.70;;;;;;5070454;28;20204;-69
2023/03/08 04:38:07;;;;;;;2.07;1.10;;;8.20;23.70;;;;;;5070632;28;20286;-67
2023/03/08 04:41:00;;;;;;;3.20;1.63;;;8.40;23.60;;;;;;5069521;28;20183;-67
2023/03/08 04:43:18;;;;;;;2.85;1.90;;;8.20;23.90;;;;;;5066901;28;20720;-67
2023/03/08 04:45:44;;;;;;;1.80;1.10;;;7.60;24.80;;;;;;5069995;28;20214;-67
2023/03/08 04:48:09;;;;;;;1.90;1.10;;;7.70;24.60;;;;;;5069424;28;20866;-69
2023/03/08 04:50:35;;;;;;;4.90;2.80;;;8.00;24.10;;;;;;5069648;28;20183;-67
2023/03/08 04:53:00;;;;;;;1.90;1.10;;;8.40;24.40;;;;;;5071121;28;20618;-68
2023/03/08 04:55:26;;;;;;;2.20;1.30;;;8.50;24.90;;;;;;5068261;28;20187;-69
2023/03/08 04:57:51;;;;;;;2.20;1.27;;;8.60;24.10;;;;;;5069225;28;20203;-67
2023/03/08 05:00:17;;;;;;;1.90;1.10;;;8.60;24.50;;;;;;5059697;28;20319;-67
2023/03/08 05:02:43;;;;;;;1.90;1.10;;;8.90;23.80;;;;;;5062223;28;20252;-66
2023/03/08 05:05:08;;;;;;;2.53;1.30;;;9.00;23.10;;;;;;5060718;28;20188;-67
2023/03/08 05:07:34;;;;;;;1.80;1.10;;;8.90;23.60;;;;;;5065015;28;20253;-67
2023/03/08 05:09:59;;;;;;;1.90;1.10;;;8.70;24.90;;;;;;5069808;28;20240;-67
2023/03/08 05:12:25;;;;;;;1.80;1.00;;;8.80;24.20;;;;;;5069227;28;20186;-67
2023/03/08 05:14:50;;;;;;;1.80;1.10;;;8.90;23.20;;;;;;5070424;28;20191;-67
2023/03/08 05:17:16;;;;;;;1.80;1.00;;;9.10;23.50;;;;;;5064421;28;20658;-67
2023/03/08 05:19:42;;;;;;;2.13;1.40;;;9.20;23.40;;;;;;5071569;28;20375;-67
2023/03/08 05:22:07;;;;;;;1.90;1.30;;;9.20;23.80;;;;;;5070284;28;20221;-66
2023/03/08 05:24:33;;;;;;;3.30;1.83;;;9.10;23.70;;;;;;5067898;28;20183;-68
2023/03/08 05:26:59;;;;;;;2.00;1.20;;;9.30;23.00;;;;;;5062719;28;20211;-68
2023/03/08 05:29:24;;;;;;;2.00;1.23;;;9.30;22.90;;;;;;5070774;28;20176;-67
2023/03/08 05:31:50;;;;;;;2.00;1.30;;;9.30;22.90;;;;;;5065678;28;20186;-66
2023/03/08 05:34:15;;;;;;;1.83;1.10;;;9.50;22.80;;;;;;5069043;28;20182;-66
2023/03/08 05:36:41;;;;;;;1.97;1.20;;;9.40;23.40;;;;;;5069597;28;20253;-67
2023/03/08 05:39:07;;;;;;;1.88;1.17;;;9.40;24.50;;;;;;5051439;28;20629;-68
2023/03/08 05:41:33;;;;;;;3.27;1.93;;;9.30;24.20;;;;;;5068942;28;20219;-69
2023/03/08 05:44:00;;;;;;;3.10;1.87;;;9.30;25.00;;;;;;5068740;28;20430;-67
2023/03/08 05:46:26;;;;;;;2.28;1.67;;;9.00;24.80;;;;;;5068953;28;20210;-69
2023/03/08 05:48:51;;;;;;;1.90;1.20;;;8.70;24.70;;;;;;5074793;28;20178;-67
2023/03/08 05:51:17;;;;;;;2.23;1.40;;;8.60;25.20;;;;;;5072002;28;20175;-67
2023/03/08 05:53:44;;;;;;;1.93;1.30;;;8.80;24.60;;;;;;5066621;28;20182;-67
2023/03/08 05:56:12;;;;;;;1.80;1.00;;;8.60;24.70;;;;;;5073602;28;20437;-69
2023/03/08 05:58:38;;;;;;;1.80;1.10;;;8.60;25.20;;;;;;5067709;28;20262;-68
2023/03/08 06:01:15;;;;;;;2.00;1.20;;;8.60;25.20;;;;;;5072558;28;20671;-68
2023/03/08 06:03:42;;;;;;;2.33;1.55;;;8.80;25.30;;;;;;5072930;28;20432;-67
2023/03/08 06:06:08;;;;;;;1.90;1.30;;;8.60;25.30;;;;;;5068679;28;20227;-67
2023/03/08 06:08:34;;;;;;;1.90;1.10;;;8.60;25.80;;;;;;5071541;28;20222;-68
2023/03/08 06:10:59;;;;;;;1.80;1.20;;;8.80;25.00;;;;;;5074472;28;20178;-70
2023/03/08 06:13:25;;;;;;;2.00;1.30;;;9.00;26.60;;;;;;5063704;28;20824;-67
2023/03/08 06:15:59;;;;;;;1.83;1.20;;;9.30;25.10;;;;;;5073903;28;20195;-67
2023/03/08 06:18:25;;;;;;;1.75;1.10;;;9.20;24.80;;;;;;5074049;28;20189;-67
2023/03/08 06:21:16;;;;;;;1.80;1.10;;;9.20;24.80;;;;;;5074491;28;20206;-68
2023/03/08 06:23:43;;;;;;;2.20;1.27;;;9.40;24.50;;;;;;5072367;28;20240;-67
2023/03/08 06:26:10;;;;;;;2.83;1.88;;;9.70;24.10;;;;;;5073324;28;20696;-67
2023/03/08 06:28:36;;;;;;;1.70;1.00;;;9.70;24.90;;;;;;5073677;28;20175;-67
2023/03/08 06:31:03;;;;;;;1.73;1.10;;;9.60;25.40;;;;;;5073315;28;20211;-70
2023/03/08 06:33:30;;;;;;;1.90;1.20;;;9.20;25.50;;;;;;5071817;28;20249;-70
2023/03/08 06:36:08;;;;;;;2.00;1.20;;;9.20;25.70;;;;;;5072380;28;20481;-67
2023/03/08 06:38:35;;;;;;;2.00;1.30;;;9.10;25.80;;;;;;5072844;28;20670;-67
2023/03/08 06:41:02;;;;;;;2.70;1.92;;;9.40;25.50;;;;;;5073159;28;20192;-67
2023/03/08 06:43:28;;;;;;;1.80;1.20;;;9.10;25.60;;;;;;5071905;28;20275;-67
2023/03/08 06:45:54;;;;;;;2.00;1.35;;;9.20;25.70;;;;;;5048023;28;20199;-67
2023/03/08 06:48:20;;;;;;;11.63;1.70;;;9.10;26.00;;;;;;5073479;28;20177;-67
2023/03/08 06:50:46;;;;;;;2.00;1.30;;;9.00;26.70;;;;;;5073180;28;20437;-67
2023/03/08 06:53:12;;;;;;;2.10;1.33;;;9.00;26.40;;;;;;5063911;28;20558;-70
2023/03/08 06:55:39;;;;;;;4.18;1.63;;;9.20;26.40;;;;;;5068246;28;20183;-67
2023/03/08 06:58:06;;;;;;;1.90;1.10;;;9.60;25.10;;;;;;5072763;28;20230;-70
2023/03/08 07:00:31;;;;;;;2.40;1.67;;;9.50;25.90;;;;;;5072484;28;20187;-68
2023/03/08 07:02:58;;;;;;;3.63;2.60;;;9.90;25.90;;;;;;5070632;28;20185;-67
2023/03/08 07:05:23;;;;;;;1.90;1.13;;;10.20;25.10;;;;;;5055019;28;20457;-67
2023/03/08 07:07:49;;;;;;;1.80;1.20;;;10.60;23.10;;;;;;5075414;28;20207;-69
2023/03/08 07:10:15;;;;;;;1.90;1.20;;;10.80;23.50;;;;;;5073101;28;20173;-66
2023/03/08 07:12:45;;;;;;;2.33;1.52;;;10.60;23.40;;;;;;5074223;28;20193;-67
2023/03/08 07:15:17;;;;;;;2.47;1.65;;;10.10;24.10;;;;;;5068484;28;20228;-67
2023/03/08 07:17:45;;;;;;;1.77;1.10;;;9.90;25.60;;;;;;5054929;28;20281;-67
2023/03/08 07:20:12;;;;;;;2.10;1.30;;;9.70;26.70;;;;;;5072431;28;20185;-67
2023/03/08 07:22:40;;;;;;;1.70;1.00;;;10.00;24.60;;;;;;5064713;28;20547;-67
2023/03/08 07:25:07;;;;;;;1.80;1.20;;;9.80;25.90;;;;;;5069885;28;20319;-68
2023/03/08 07:27:32;;;;;;;3.00;1.40;;;9.40;26.20;;;;;;5068098;28;20224;-67
2023/03/08 07:29:58;;;;;;;1.80;1.10;;;9.30;27.10;;;;;;5071924;28;20178;-67
2023/03/08 07:32:27;;;;;;;1.80;1.10;;;9.30;26.50;;;;;;5069981;28;20552;-69
2023/03/08 07:34:53;;;;;;;1.80;1.20;;;9.60;26.30;;;;;;5071007;28;20846;-67
2023/03/08 07:37:19;;;;;;;3.38;1.75;;;9.80;26.50;;;;;;5070903;28;20300;-66
2023/03/08 07:39:45;;;;;;;2.23;1.20;;;9.70;26.70;;;;;;5068033;28;20254;-67
2023/03/08 07:42:10;;;;;;;2.07;1.37;;;10.10;25.30;;;;;;5070729;28;20185;-67
2023/03/08 07:44:36;;;;;;;1.90;1.20;;;10.10;25.40;;;;;;5070118;28;20213;-71
2023/03/08 07:47:04;;;;;;;2.00;1.40;;;10.60;25.80;;;;;;5071021;28;20218;-67
2023/03/08 07:49:29;;;;;;;2.00;1.30;;;10.80;24.00;;;;;;5072442;28;20412;-67
2023/03/08 07:51:55;;;;;;;1.90;1.20;;;11.10;24.00;;;;;;5072459;28;20201;-67
2023/03/08 07:54:21;;;;;;;2.30;1.70;;;11.30;23.60;;;;;;5071531;28;20212;-70
2023/03/08 07:56:47;;;;;;;2.10;1.40;;;11.40;23.70;;;;;;5050913;28;20971;-69
2023/03/08 07:59:12;;;;;;;2.87;1.40;;;11.50;23.50;;;;;;5069113;28;20183;-70
2023/03/08 08:01:38;;;;;;;2.00;1.20;;;11.30;24.00;;;;;;5070906;28;20210;-67
2023/03/08 08:04:03;;;;;;;2.10;1.37;;;11.10;23.60;;;;;;5071476;28;20268;-67
2023/03/08 08:06:29;;;;;;;2.10;1.40;;;10.90;24.20;;;;;;5069756;28;20218;-67
2023/03/08 08:08:56;;;;;;;1.80;1.13;;;10.60;24.80;;;;;;5070618;28;20183;-67
2023/03/08 08:11:22;;;;;;;3.47;1.70;;;10.50;24.20;;;;;;5072383;28;20927;-67
2023/03/08 08:13:48;;;;;;;1.88;1.20;;;9.90;25.80;;;;;;5071762;28;20186;-67
2023/03/08 08:16:15;;;;;;;1.80;1.10;;;10.00;25.00;;;;;;5072039;28;20207;-67
2023/03/08 08:18:40;;;;;;;2.13;1.40;;;10.20;24.80;;;;;;5070902;28;20197;-67
2023/03/08 08:21:09;;;;;;;2.60;1.70;;;9.90;26.10;;;;;;5071629;28;20194;-67
2023/03/08 08:23:35;;;;;;;2.00;1.30;;;10.60;25.10;;;;;;5072188;28;20179;-66
2023/03/08 08:26:10;;;;;;;1.80;1.10;;;10.60;24.30;;;;;;5071428;28;20201;-69
2023/03/08 08:28:37;;;;;;;1.80;1.10;;;10.20;25.60;;;;;;5070866;28;20187;-67
2023/03/08 08:31:11;;;;;;;2.38;1.55;;;10.60;25.10;;;;;;5070881;28;20554;-67
2023/03/08 08:33:37;;;;;;;1.83;1.10;;;10.60;25.10;;;;;;5067469;28;20183;-69
2023/03/08 08:36:05;;;;;;;2.40;1.40;;;10.70;25.50;;;;;;5070760;28;20202;-72
2023/03/08 08:38:31;;;;;;;2.00;1.40;;;10.90;25.00;;;;;;5067092;28;20191;-75
2023/03/08 08:41:01;;;;;;;1.80;1.10;;;11.10;25.60;;;;;;5070023;28;20535;-75
2023/03/08 08:43:27;;;;;;;1.80;1.10;;;12.00;24.90;;;;;;5070992;28;20190;-74
2023/03/08 08:45:56;;;;;;;2.10;1.20;;;11.50;24.90;;;;;;5050044;28;20246;-76
2023/03/08 08:48:22;;;;;;;2.00;1.23;;;10.90;25.60;;;;;;5071031;28;20167;-74
2023/03/08 08:50:48;;;;;;;1.80;1.10;;;11.20;25.40;;;;;;5075581;28;20258;-76
2023/03/08 08:53:14;;;;;;;1.83;1.10;;;11.20;24.50;;;;;;5075344;28;20406;-77
2023/03/08 08:55:40;;;;;;;1.80;1.10;;;11.20;25.10;;;;;;5069301;28;20198;-70
2023/03/08 08:58:06;;;;;;;1.80;1.10;;;11.50;24.50;;;;;;5071065;28;20469;-70
2023/03/08 09:00:33;;;;;;;1.90;1.20;;;11.90;24.60;;;;;;5071744;28;20205;-70
2023/03/08 09:03:00;;;;;;;2.63;1.20;;;11.90;23.30;;;;;;5070481;28;20433;-69
2023/03/08 09:05:26;;;;;;;1.90;1.20;;;10.80;25.50;;;;;;5071668;28;20453;-69
2023/03/08 09:07:59;;;;;;;1.90;1.23;;;10.10;26.80;;;;;;5063756;28;20450;-70
2023/03/08 09:10:27;;;;;;;1.87;1.20;;;10.30;27.00;;;;;;5064434;28;20462;-70
2023/03/08 09:12:53;;;;;;;2.17;1.30;;;11.20;26.00;;;;;;5041421;28;20562;-69
2023/03/08 09:15:20;;;;;;;2.03;1.33;;;10.40;26.20;;;;;;5064129;28;20521;-70
2023/03/08 09:17:46;;;;;;;2.03;1.33;;;10.20;26.60;;;;;;5067334;28;20520;-70
2023/03/08 09:20:12;;;;;;;4.83;1.70;;;9.60;28.70;;;;;;5068718;28;20187;-70
2023/03/08 09:22:38;;;;;;;1.80;1.20;;;9.50;28.70;;;;;;5068214;28;20432;-69
2023/03/08 09:25:04;;;;;;;2.00;1.30;;;9.90;28.10;;;;;;5064694;28;20624;-69
2023/03/08 09:27:30;;;;;;;1.80;1.10;;;10.60;26.90;;;;;;5062598;28;20454;-69
2023/03/08 09:29:57;;;;;;;1.80;1.10;;;10.80;27.60;;;;;;5066550;28;20465;-68
2023/03/08 09:32:23;;;;;;;2.07;1.40;;;11.40;26.40;;;;;;5068794;28;20452;-67
2023/03/08 09:34:49;;;;;;;2.10;1.40;;;11.50;25.60;;;;;;5069273;28;20417;-68
2023/03/08 09:37:14;;;;;;;3.17;1.30;;;11.90;25.80;;;;;;5066659;28;20449;-68
2023/03/08 09:39:40;;;;;;;2.27;1.30;;;11.70;25.90;;;;;;5063409;28;20429;-67
2023/03/08 09:42:23;;;;;;;1.80;1.20;;;11.00;27.70;;;;;;5069111;28;20445;-78
2023/03/08 09:44:57;;;;;;;1.70;1.00;;;10.90;29.10;;;;;;5071269;28;20202;-68
2023/03/08 09:47:45;;;;;;;2.17;1.40;;;11.40;28.90;;;;;;5070768;28;20483;-67
2023/03/08 09:50:11;;;;;;;1.83;1.13;;;11.70;29.20;;;;;;5066197;28;20422;-66
2023/03/08 09:52:49;;;;;;;1.87;1.13;;;11.80;28.70;;;;;;5070626;28;20823;-66
2023/03/08 09:55:42;;;;;;;1.80;1.10;;;11.70;29.20;;;;;;5069187;28;20186;-66
2023/03/08 09:58:27;;;;;;;1.80;1.10;;;12.20;28.90;;;;;;5064300;28;20483;-77
2023/03/08 10:00:56;;;;;;;1.80;1.10;;;12.40;28.30;;;;;;5064104;28;20928;-69
2023/03/08 10:03:22;;;;;;;1.87;1.20;;;12.30;28.90;;;;;;5066608;28;20433;-66
2023/03/08 10:06:12;;;;;;;1.80;1.03;;;11.80;30.00;;;;;;5064947;28;20460;-66
2023/03/08 10:08:56;;;;;;;1.80;1.10;;;11.90;30.60;;;;;;5065748;28;20207;-71
2023/03/08 10:11:34;;;;;;;1.80;1.20;;;12.70;29.30;;;;;;5069528;28;20429;-71
2023/03/08 10:14:22;;;;;;;1.70;1.10;;;12.70;29.60;;;;;;5070519;28;20779;-69
2023/03/08 10:16:54;;;;;;;1.80;1.20;;;12.60;30.00;;;;;;5053664;28;20965;-66
2023/03/08 10:19:41;;;;;;;1.90;1.30;;;12.60;30.60;;;;;;5065240;28;20794;-69
2023/03/08 10:22:15;;;;;;;1.80;1.13;;;12.40;31.10;;;;;;5062347;28;20429;-66
2023/03/08 10:24:48;;;;;;;1.80;1.13;;;12.30;32.20;;;;;;5069227;28;20445;-67
2023/03/08 10:27:26;;;;;;;1.80;1.20;;;11.60;33.90;;;;;;5068485;28;20819;-66
2023/03/08 10:29:54;;;;;;;1.80;1.10;;;11.60;33.80;;;;;;5074512;28;20492;-66
2023/03/08 10:32:21;;;;;;;1.90;1.20;;;11.70;34.50;;;;;;5072355;28;20425;-66
2023/03/08 10:34:47;;;;;;;1.70;1.00;;;11.70;34.30;;;;;;5057278;28;20810;-66
2023/03/08 10:37:13;;;;;;;1.90;1.27;;;12.20;33.50;;;;;;5069437;28;20892;-67
2023/03/08 10:39:54;;;;;;;2.40;1.30;;;11.90;35.10;;;;;;5069308;28;20453;-71
2023/03/08 10:42:23;;;;;;;1.90;1.27;;;11.80;35.20;;;;;;5070419;28;20935;-69
2023/03/08 10:44:53;;;;;;;1.80;1.10;;;11.80;35.40;;;;;;5071203;28;20430;-67
2023/03/08 10:47:31;;;;;;;1.90;1.13;;;12.20;34.40;;;;;;5073445;28;20435;-67
2023/03/08 10:50:12;;;;;;;1.80;1.10;;;12.70;33.80;;;;;;5073061;28;20429;-67
2023/03/08 10:52:39;;;;;;;1.70;1.00;;;12.50;34.60;;;;;;5059764;28;20942;-67
2023/03/08 10:55:16;;;;;;;1.73;1.10;;;13.10;33.20;;;;;;5072365;28;20540;-67
2023/03/08 10:57:59;;;;;;;2.00;1.30;;;13.70;31.50;;;;;;5073712;28;20427;-67
2023/03/08 11:00:32;;;;;;;1.80;1.20;;;13.60;31.50;;;;;;5070640;28;20432;-66
2023/03/08 11:03:17;;;;;;;1.90;1.20;;;13.90;31.00;;;;;;5071860;28;20467;-69
2023/03/08 11:05:56;;;;;;;1.80;1.10;;;13.80;31.00;;;;;;5065645;28;20458;-66
2023/03/08 11:08:26;;;;;;;1.70;1.10;;;13.60;32.20;;;;;;5071722;28;20475;-67
2023/03/08 11:11:07;;;;;;;1.80;1.10;;;13.80;32.10;;;;;;5071759;28;20802;-67
2023/03/08 11:13:37;;;;;;;1.80;1.10;;;14.50;30.80;;;;;;5072047;28;20425;-67
2023/03/08 11:16:17;;;;;;;1.90;1.30;;;14.90;29.80;;;;;;5070171;28;20504;-68
2023/03/08 11:19:07;;;;;;;2.00;1.37;;;15.30;29.30;;;;;;5071532;28;20437;-67
2023/03/08 11:21:46;;;;;;;1.80;1.10;;;15.10;29.80;;;;;;5072600;28;20436;-67
2023/03/08 11:24:49;;;;;;;1.80;1.10;;;14.60;30.60;;;;;;5070025;28;20876;-69
2023/03/08 11:27:35;;;;;;;1.80;1.17;;;15.10;29.90;;;;;;5064141;28;20471;-66
2023/03/08 11:30:04;;;;;;;1.70;1.00;;;15.10;29.70;;;;;;5069279;28;20440;-71
2023/03/08 11:33:15;;;;;;;1.93;1.20;;;15.30;29.90;;;;;;5071755;28;20437;-74
2023/03/08 11:36:06;;;;;;;1.80;1.20;;;16.20;27.90;;;;;;5068553;28;20493;-70
2023/03/08 11:38:35;;;;;;;1.87;1.20;;;15.40;29.60;;;;;;5063470;28;20432;-66
2023/03/08 11:41:28;;;;;;;1.73;1.10;;;15.30;29.60;;;;;;5067066;28;20422;-65
2023/03/08 11:44:12;;;;;;;1.80;1.10;;;15.90;29.10;;;;;;5068634;28;20434;-65
2023/03/08 11:46:55;;;;;;;1.83;1.20;;;16.40;28.30;;;;;;5065612;28;20473;-68
2023/03/08 11:49:53;;;;;;;1.83;1.20;;;16.20;28.80;;;;;;5070533;28;20512;-69
2023/03/08 11:52:51;;;;;;;1.90;1.20;;;17.00;27.90;;;;;;5060182;28;20428;-65
2023/03/08 11:55:37;;;;;;;1.70;1.10;;;17.90;26.60;;;;;;5058892;28;20957;-66
2023/03/08 11:58:21;;;;;;;1.80;1.20;;;16.90;27.30;;;;;;5064585;28;21002;-65
2023/03/08 12:00:50;;;;;;;1.80;1.20;;;17.10;28.10;;;;;;5052972;28;20428;-65
2023/03/08 12:03:20;;;;;;;1.90;1.30;;;16.40;28.20;;;;;;5065957;28;20935;-72
2023/03/08 12:05:54;;;;;;;1.80;1.20;;;16.00;29.10;;;;;;5068916;28;20471;-66
2023/03/08 12:08:47;;;;;;;1.80;1.10;;;15.90;29.20;;;;;;5068236;28;20797;-72
2023/03/08 12:11:21;;;;;;;1.80;1.20;;;16.40;28.60;;;;;;5071007;28;20427;-66
2023/03/08 12:13:52;;;;;;;1.80;1.10;;;16.60;28.10;;;;;;5064729;28;20453;-66
2023/03/08 12:16:24;;;;;;;1.90;1.23;;;16.00;28.90;;;;;;5067182;28;20470;-70
2023/03/08 12:19:17;;;;;;;1.90;1.20;;;15.90;29.20;;;;;;5071224;28;20448;-70
2023/03/08 12:21:50;;;;;;;1.80;1.10;;;16.00;29.20;;;;;;5062708;28;20503;-67
2023/03/08 12:24:43;;;;;;;2.00;1.20;;;15.90;29.40;;;;;;5066064;28;20786;-67
2023/03/08 12:27:31;;;;;;;1.80;1.10;;;15.60;29.70;;;;;;5069231;28;20514;-66
2023/03/08 12:30:00;;;;;;;1.80;1.10;;;15.40;30.20;;;;;;5062974;28;20992;-65
2023/03/08 12:32:26;;;;;;;2.30;1.30;;;15.70;29.70;;;;;;5069981;28;20778;-65
2023/03/08 12:35:22;;;;;;;1.80;1.00;;;15.70;29.70;;;;;;5066784;28;20850;-66
2023/03/08 12:38:00;;;;;;;1.90;1.20;;;15.50;30.00;;;;;;5063371;28;20464;-64
2023/03/08 12:40:39;;;;;;;2.47;1.67;;;15.30;30.70;;;;;;5069242;28;20776;-66
2023/03/08 12:43:18;;;;;;;1.90;1.10;;;15.20;30.50;;;;;;5051612;28;20456;-70
2023/03/08 12:45:45;;;;;;;1.90;1.10;;;14.70;31.90;;;;;;5068913;28;20507;-66
2023/03/08 12:48:24;;;;;;;2.00;1.10;;;14.60;32.20;;;;;;5064798;28;20542;-71
2023/03/08 12:51:02;;;;;;;1.97;1.20;;;14.50;33.80;;;;;;5068838;28;20436;-66
2023/03/08 12:53:51;;;;;;;1.93;1.20;;;14.70;32.30;;;;;;5071060;28;20512;-69
2023/03/08 12:56:36;;;;;;;1.97;1.10;;;14.70;32.80;;;;;;5067957;28;20426;-66
2023/03/08 12:59:10;;;;;;;2.00;1.20;;;14.80;32.50;;;;;;5066623;28;20406;-66
2023/03/08 13:01:39;;;;;;;2.00;1.20;;;14.90;32.30;;;;;;5069614;28;20446;-66
2023/03/08 13:04:25;;;;;;;1.90;1.20;;;14.80;32.70;;;;;;5064470;28;20440;-65
2023/03/08 13:06:50;;;;;;;1.90;1.20;;;14.90;32.50;;;;;;5062894;28;20488;-66